PGT0712 LOWW-UKBB
Flight info
| Callsign | PGT0712 |
|---|---|
| Flight time | 1h 47m |
| Altitude | 9000 |
| Route | VABG2C/29 LEDVA L156 SOPAV L984 PADKA/N0422F390 L984 DIBED/K0783F390 N983 SORON M986 SLV |
| Aircraft | A20N/M-SDE2E3FGHIRWXY/LB1 |
Departure
| Time | 2026-04-25 20:04 |
|---|---|
| Airport | Vienna International Airport (LOWW) |
Arrival
| Time | 2026-04-25 21:52 |
|---|---|
| Airport | Boryspil International Airport (UKBB) |
| Time | Latitude | Longitude | Altitude | Speed | Heading |
|---|---|---|---|---|---|
| 2026-04-25 19:26 | 48.11930 | 16.55635 | 612 ft | 0 kts | 25° |
| 2026-04-25 19:52 | 48.11915 | 16.55624 | 624 ft | 4 kts | 25° |
| 2026-04-25 19:52 | 48.11891 | 16.55608 | 614 ft | 0 kts | 25° |
| 2026-04-25 19:52 | 48.11888 | 16.55606 | 624 ft | 1 kts | 25° |
| 2026-04-25 19:52 | 48.11881 | 16.55601 | 624 ft | 2 kts | 27° |
| 2026-04-25 19:53 | 48.11861 | 16.55570 | 624 ft | 4 kts | 88° |
| 2026-04-25 19:53 | 48.11866 | 16.55541 | 608 ft | 0 kts | 134° |
| 2026-04-25 19:53 | 48.11866 | 16.55542 | 608 ft | 0 kts | 134° |
| 2026-04-25 19:58 | 48.11851 | 16.55564 | 614 ft | 5 kts | 138° |
| 2026-04-25 19:58 | 48.11811 | 16.55581 | 616 ft | 8 kts | 178° |
| 2026-04-25 19:58 | 48.11752 | 16.55615 | 617 ft | 10 kts | 130° |
| 2026-04-25 19:59 | 48.11714 | 16.55728 | 618 ft | 14 kts | 118° |
| 2026-04-25 19:59 | 48.11664 | 16.55877 | 620 ft | 18 kts | 115° |
| 2026-04-25 19:59 | 48.11605 | 16.56060 | 610 ft | 21 kts | 116° |
| 2026-04-25 19:59 | 48.11540 | 16.56261 | 618 ft | 23 kts | 115° |
| 2026-04-25 20:00 | 48.11469 | 16.56481 | 613 ft | 24 kts | 115° |
| 2026-04-25 20:00 | 48.11424 | 16.56620 | 614 ft | 21 kts | 115° |
| 2026-04-25 20:00 | 48.11338 | 16.56878 | 608 ft | 21 kts | 97° |
| 2026-04-25 20:00 | 48.11277 | 16.57073 | 610 ft | 22 kts | 114° |
| 2026-04-25 20:01 | 48.11144 | 16.57477 | 620 ft | 18 kts | 122° |
| 2026-04-25 20:01 | 48.11060 | 16.57510 | 612 ft | 10 kts | 204° |
| 2026-04-25 20:01 | 48.11057 | 16.57508 | 611 ft | 0 kts | 204° |
| 2026-04-25 20:02 | 48.11056 | 16.57508 | 611 ft | 0 kts | 204° |
| 2026-04-25 20:03 | 48.11040 | 16.57497 | 608 ft | 5 kts | 204° |
| 2026-04-25 20:03 | 48.10997 | 16.57467 | 608 ft | 9 kts | 206° |
| 2026-04-25 20:03 | 48.10966 | 16.57387 | 614 ft | 10 kts | 276° |
| 2026-04-25 20:03 | 48.11001 | 16.57270 | 614 ft | 27 kts | 297° |
| 2026-04-25 20:04 | 48.11224 | 16.56594 | 616 ft | 113 kts | 295° |
| 2026-04-25 20:04 | 48.11649 | 16.55268 | 839 ft | 155 kts | 296° |
| 2026-04-25 20:04 | 48.12161 | 16.53791 | 1629 ft | 167 kts | 294° |
| 2026-04-25 20:04 | 48.12358 | 16.51975 | 2382 ft | 190 kts | 270° |
| 2026-04-25 20:05 | 48.11899 | 16.49997 | 3098 ft | 220 kts | 239° |
| 2026-04-25 20:05 | 48.10639 | 16.48466 | 3854 ft | 248 kts | 210° |
| 2026-04-25 20:05 | 48.09019 | 16.47507 | 4947 ft | 253 kts | 204° |
| 2026-04-25 20:05 | 48.07543 | 16.46117 | 5615 ft | 248 kts | 229° |
| 2026-04-25 20:06 | 48.06604 | 16.44065 | 5466 ft | 237 kts | 246° |
| 2026-04-25 20:06 | 48.05878 | 16.41682 | 5104 ft | 268 kts | 250° |
| 2026-04-25 20:06 | 48.05163 | 16.39119 | 5016 ft | 265 kts | 250° |
| 2026-04-25 20:06 | 48.04450 | 16.36595 | 5065 ft | 270 kts | 250° |
| 2026-04-25 20:07 | 48.03733 | 16.34013 | 5741 ft | 266 kts | 255° |
| 2026-04-25 20:07 | 48.03372 | 16.31322 | 6869 ft | 263 kts | 268° |
| 2026-04-25 20:07 | 48.03422 | 16.28599 | 7991 ft | 263 kts | 276° |
| 2026-04-25 20:07 | 48.03556 | 16.25844 | 9035 ft | 268 kts | 275° |
| 2026-04-25 20:08 | 48.03717 | 16.23073 | 10119 ft | 269 kts | 281° |
| 2026-04-25 20:08 | 48.04304 | 16.20345 | 10757 ft | 286 kts | 297° |
| 2026-04-25 20:08 | 48.05493 | 16.17806 | 11190 ft | 310 kts | 308° |
| 2026-04-25 20:08 | 48.06902 | 16.15267 | 11822 ft | 322 kts | 308° |
| 2026-04-25 20:09 | 48.08337 | 16.12675 | 12789 ft | 325 kts | 308° |
| 2026-04-25 20:09 | 48.09781 | 16.10044 | 13747 ft | 328 kts | 308° |
| 2026-04-25 20:09 | 48.11272 | 16.07429 | 14583 ft | 333 kts | 314° |
| 2026-04-25 20:09 | 48.13188 | 16.05424 | 15379 ft | 343 kts | 332° |
| 2026-04-25 20:10 | 48.15505 | 16.04452 | 16159 ft | 354 kts | 351° |
| 2026-04-25 20:10 | 48.18001 | 16.04578 | 16976 ft | 362 kts | 1° |
| 2026-04-25 20:10 | 48.20526 | 16.04928 | 17806 ft | 366 kts | 1° |
| 2026-04-25 20:10 | 48.23078 | 16.05286 | 18517 ft | 371 kts | 1° |
| 2026-04-25 20:11 | 48.25642 | 16.05992 | 19201 ft | 381 kts | 14° |
| 2026-04-25 20:11 | 48.28036 | 16.07733 | 19845 ft | 394 kts | 30° |
| 2026-04-25 20:11 | 48.30110 | 16.10514 | 20502 ft | 405 kts | 42° |
| 2026-04-25 20:11 | 48.32046 | 16.13619 | 21138 ft | 410 kts | 43° |
| 2026-04-25 20:12 | 48.34001 | 16.16771 | 21782 ft | 414 kts | 43° |
| 2026-04-25 20:12 | 48.35982 | 16.19959 | 22421 ft | 418 kts | 43° |
| 2026-04-25 20:12 | 48.37981 | 16.23173 | 22853 ft | 423 kts | 42° |
| 2026-04-25 20:12 | 48.38661 | 16.24267 | 22910 ft | 424 kts | 42° |
| 2026-04-25 20:13 | 48.42011 | 16.29653 | 22977 ft | 423 kts | 42° |
| 2026-04-25 20:13 | 48.44026 | 16.32895 | 22977 ft | 423 kts | 42° |
| 2026-04-25 20:13 | 48.46037 | 16.36132 | 22973 ft | 423 kts | 42° |
| 2026-04-25 20:13 | 48.48027 | 16.39341 | 22976 ft | 423 kts | 42° |
| 2026-04-25 20:14 | 48.50035 | 16.42580 | 22974 ft | 423 kts | 42° |
| 2026-04-25 20:14 | 48.52045 | 16.45828 | 22971 ft | 424 kts | 42° |
| 2026-04-25 20:14 | 48.54057 | 16.49082 | 22964 ft | 424 kts | 42° |
| 2026-04-25 20:14 | 48.56071 | 16.52346 | 22981 ft | 422 kts | 42° |
| 2026-04-25 20:15 | 48.58063 | 16.55580 | 22965 ft | 419 kts | 42° |
| 2026-04-25 20:15 | 48.60056 | 16.58816 | 22959 ft | 421 kts | 42° |
| 2026-04-25 20:15 | 48.62048 | 16.62054 | 22960 ft | 420 kts | 42° |
| 2026-04-25 20:15 | 48.64038 | 16.65294 | 22960 ft | 420 kts | 42° |
| 2026-04-25 20:16 | 48.66035 | 16.68548 | 22958 ft | 420 kts | 42° |
| 2026-04-25 20:16 | 48.67998 | 16.71753 | 22955 ft | 420 kts | 42° |
| 2026-04-25 20:16 | 48.70026 | 16.74916 | 22956 ft | 417 kts | 38° |
| 2026-04-25 20:16 | 48.72154 | 16.77912 | 22956 ft | 419 kts | 37° |
| 2026-04-25 20:17 | 48.74324 | 16.80966 | 22957 ft | 421 kts | 37° |
| 2026-04-25 20:17 | 48.76437 | 16.83946 | 22949 ft | 418 kts | 37° |
| 2026-04-25 20:17 | 48.78695 | 16.86667 | 22953 ft | 412 kts | 28° |
| 2026-04-25 20:17 | 48.81089 | 16.89085 | 22950 ft | 412 kts | 27° |
| 2026-04-25 20:18 | 48.83474 | 16.91486 | 22952 ft | 412 kts | 27° |
| 2026-04-25 20:18 | 48.85867 | 16.93896 | 22952 ft | 412 kts | 27° |
| 2026-04-25 20:18 | 48.88256 | 16.96307 | 22951 ft | 412 kts | 27° |
| 2026-04-25 20:18 | 48.90644 | 16.98723 | 22950 ft | 412 kts | 28° |
| 2026-04-25 20:19 | 48.93029 | 17.01139 | 22982 ft | 412 kts | 28° |
| 2026-04-25 20:19 | 48.95403 | 17.03550 | 22954 ft | 407 kts | 28° |
| 2026-04-25 20:19 | 48.97760 | 17.05946 | 22952 ft | 408 kts | 28° |
| 2026-04-25 20:19 | 49.00125 | 17.08351 | 22951 ft | 409 kts | 28° |
| 2026-04-25 20:20 | 49.02493 | 17.10762 | 22958 ft | 409 kts | 28° |
| 2026-04-25 20:20 | 49.04850 | 17.13165 | 22954 ft | 408 kts | 28° |
| 2026-04-25 20:20 | 49.07181 | 17.15545 | 22956 ft | 408 kts | 28° |
| 2026-04-25 20:20 | 49.09548 | 17.17964 | 22952 ft | 409 kts | 28° |
| 2026-04-25 20:21 | 49.11911 | 17.20383 | 22954 ft | 408 kts | 28° |
| 2026-04-25 20:21 | 49.14271 | 17.22801 | 22948 ft | 407 kts | 28° |
| 2026-04-25 20:21 | 49.16619 | 17.25209 | 22960 ft | 407 kts | 28° |
| 2026-04-25 20:21 | 49.18974 | 17.27628 | 22955 ft | 408 kts | 28° |
| 2026-04-25 20:22 | 49.21329 | 17.30049 | 22954 ft | 408 kts | 28° |
| 2026-04-25 20:22 | 49.22095 | 17.30838 | 22949 ft | 407 kts | 28° |
| 2026-04-25 20:22 | 49.26041 | 17.34903 | 22963 ft | 408 kts | 28° |
| 2026-04-25 20:22 | 49.28361 | 17.37296 | 22952 ft | 407 kts | 28° |
| 2026-04-25 20:23 | 49.30713 | 17.39727 | 22951 ft | 407 kts | 28° |
| 2026-04-25 20:23 | 49.33065 | 17.42160 | 22982 ft | 408 kts | 27° |
| 2026-04-25 20:23 | 49.35422 | 17.44601 | 22951 ft | 409 kts | 27° |
| 2026-04-25 20:23 | 49.37777 | 17.47043 | 22949 ft | 408 kts | 27° |
| 2026-04-25 20:24 | 49.40133 | 17.49488 | 22949 ft | 408 kts | 27° |
| 2026-04-25 20:24 | 49.42484 | 17.51930 | 22948 ft | 408 kts | 27° |
| 2026-04-25 20:24 | 49.44839 | 17.54379 | 22947 ft | 408 kts | 27° |
| 2026-04-25 20:24 | 49.47197 | 17.56835 | 22947 ft | 408 kts | 27° |
| 2026-04-25 20:25 | 49.49520 | 17.59258 | 22951 ft | 408 kts | 27° |
| 2026-04-25 20:25 | 49.51880 | 17.61722 | 22949 ft | 408 kts | 27° |
| 2026-04-25 20:25 | 49.54238 | 17.64187 | 22952 ft | 410 kts | 27° |
| 2026-04-25 20:25 | 49.56593 | 17.66652 | 22946 ft | 410 kts | 27° |
| 2026-04-25 20:26 | 49.58959 | 17.69128 | 22947 ft | 410 kts | 27° |
| 2026-04-25 20:26 | 49.60529 | 17.70773 | 22941 ft | 410 kts | 27° |
| 2026-04-25 20:26 | 49.62885 | 17.73248 | 22948 ft | 409 kts | 27° |
| 2026-04-25 20:26 | 49.65244 | 17.75729 | 22939 ft | 410 kts | 27° |
| 2026-04-25 20:27 | 49.67599 | 17.78211 | 22939 ft | 410 kts | 27° |
| 2026-04-25 20:27 | 49.69951 | 17.80689 | 22945 ft | 410 kts | 27° |
| 2026-04-25 20:27 | 49.72311 | 17.83179 | 22934 ft | 409 kts | 27° |
| 2026-04-25 20:27 | 49.74670 | 17.85669 | 22936 ft | 410 kts | 27° |
| 2026-04-25 20:28 | 49.77026 | 17.88161 | 22936 ft | 410 kts | 27° |
| 2026-04-25 20:28 | 49.79381 | 17.90654 | 22946 ft | 410 kts | 27° |
| 2026-04-25 20:28 | 49.81734 | 17.93147 | 22935 ft | 410 kts | 27° |
| 2026-04-25 20:28 | 49.84089 | 17.95646 | 22938 ft | 410 kts | 27° |
| 2026-04-25 20:29 | 49.86418 | 17.98121 | 22942 ft | 410 kts | 27° |
| 2026-04-25 20:29 | 49.88774 | 18.00630 | 22938 ft | 411 kts | 28° |
| 2026-04-25 20:29 | 49.90911 | 18.03644 | 22942 ft | 423 kts | 44° |
| 2026-04-25 20:29 | 49.92526 | 18.07543 | 22936 ft | 437 kts | 59° |
| 2026-04-25 20:30 | 49.93481 | 18.12084 | 22922 ft | 447 kts | 75° |
| 2026-04-25 20:30 | 49.93739 | 18.16918 | 22933 ft | 453 kts | 87° |
| 2026-04-25 20:30 | 49.93662 | 18.21814 | 22922 ft | 453 kts | 89° |
| 2026-04-25 20:30 | 49.93554 | 18.26653 | 22921 ft | 453 kts | 89° |
| 2026-04-25 20:31 | 49.93498 | 18.31538 | 22934 ft | 453 kts | 88° |
| 2026-04-25 20:31 | 49.93492 | 18.36436 | 22917 ft | 453 kts | 86° |
| 2026-04-25 20:31 | 49.93518 | 18.41321 | 22917 ft | 452 kts | 86° |
| 2026-04-25 20:31 | 49.93558 | 18.46200 | 22920 ft | 452 kts | 86° |
| 2026-04-25 20:32 | 49.93607 | 18.51082 | 22919 ft | 452 kts | 86° |
| 2026-04-25 20:32 | 49.93659 | 18.55965 | 22912 ft | 452 kts | 86° |
| 2026-04-25 20:32 | 49.93710 | 18.60850 | 22916 ft | 452 kts | 86° |
| 2026-04-25 20:32 | 49.93758 | 18.65733 | 22916 ft | 452 kts | 86° |
| 2026-04-25 20:33 | 49.93802 | 18.70623 | 22910 ft | 452 kts | 86° |
| 2026-04-25 20:33 | 49.93843 | 18.75443 | 22912 ft | 452 kts | 86° |
| 2026-04-25 20:33 | 49.93883 | 18.80382 | 22910 ft | 452 kts | 86° |
| 2026-04-25 20:33 | 49.93908 | 18.83614 | 22910 ft | 452 kts | 86° |
| 2026-04-25 20:34 | 49.93955 | 18.90147 | 22913 ft | 452 kts | 86° |
| 2026-04-25 20:34 | 49.93987 | 18.94970 | 22913 ft | 452 kts | 86° |
| 2026-04-25 20:34 | 49.94009 | 18.99864 | 22918 ft | 452 kts | 86° |
| 2026-04-25 20:34 | 49.94025 | 19.04740 | 22923 ft | 452 kts | 86° |
| 2026-04-25 20:35 | 49.94039 | 19.09631 | 22905 ft | 452 kts | 86° |
| 2026-04-25 20:35 | 49.94053 | 19.14505 | 22903 ft | 452 kts | 86° |
| 2026-04-25 20:35 | 49.94066 | 19.19390 | 22902 ft | 452 kts | 86° |
| 2026-04-25 20:35 | 49.94078 | 19.24283 | 22904 ft | 452 kts | 87° |
| 2026-04-25 20:36 | 49.94087 | 19.29117 | 22901 ft | 452 kts | 87° |
| 2026-04-25 20:36 | 49.94094 | 19.34027 | 22899 ft | 452 kts | 87° |
| 2026-04-25 20:36 | 49.94100 | 19.38923 | 22904 ft | 455 kts | 87° |
| 2026-04-25 20:36 | 49.94104 | 19.43846 | 22900 ft | 456 kts | 87° |
| 2026-04-25 20:37 | 49.94105 | 19.48760 | 22903 ft | 454 kts | 87° |
| 2026-04-25 20:37 | 49.94104 | 19.53656 | 22900 ft | 454 kts | 87° |
| 2026-04-25 20:37 | 49.94101 | 19.58562 | 22902 ft | 454 kts | 87° |
| 2026-04-25 20:37 | 49.94096 | 19.63469 | 22895 ft | 454 kts | 87° |
| 2026-04-25 20:38 | 49.94088 | 19.68323 | 22884 ft | 454 kts | 88° |
| 2026-04-25 20:38 | 49.94079 | 19.73244 | 22863 ft | 454 kts | 88° |
| 2026-04-25 20:38 | 49.94067 | 19.78149 | 22861 ft | 454 kts | 88° |
| 2026-04-25 20:38 | 49.94054 | 19.83055 | 22863 ft | 455 kts | 88° |
| 2026-04-25 20:39 | 49.94038 | 19.87962 | 22864 ft | 455 kts | 88° |
| 2026-04-25 20:39 | 49.94022 | 19.92860 | 22865 ft | 454 kts | 88° |
| 2026-04-25 20:39 | 49.94008 | 19.97760 | 22866 ft | 453 kts | 88° |
| 2026-04-25 20:39 | 49.93999 | 20.01011 | 22868 ft | 453 kts | 88° |
| 2026-04-25 20:40 | 49.93978 | 20.07508 | 22866 ft | 454 kts | 88° |
| 2026-04-25 20:40 | 49.93956 | 20.12409 | 22870 ft | 454 kts | 88° |
| 2026-04-25 20:40 | 49.93925 | 20.17321 | 22870 ft | 454 kts | 88° |
| 2026-04-25 20:40 | 49.93896 | 20.22222 | 22866 ft | 454 kts | 88° |
| 2026-04-25 20:41 | 49.93867 | 20.27116 | 22869 ft | 454 kts | 88° |
| 2026-04-25 20:41 | 49.93836 | 20.32028 | 22868 ft | 454 kts | 88° |
| 2026-04-25 20:41 | 49.93804 | 20.36918 | 22866 ft | 454 kts | 88° |
| 2026-04-25 20:41 | 49.93769 | 20.41817 | 22864 ft | 454 kts | 88° |
| 2026-04-25 20:42 | 49.93732 | 20.46722 | 22867 ft | 452 kts | 88° |
| 2026-04-25 20:42 | 49.93693 | 20.51611 | 22867 ft | 453 kts | 88° |
| 2026-04-25 20:42 | 49.93652 | 20.56500 | 22868 ft | 453 kts | 88° |
| 2026-04-25 20:42 | 49.93609 | 20.61394 | 22864 ft | 453 kts | 88° |
| 2026-04-25 20:43 | 49.93564 | 20.66283 | 22862 ft | 453 kts | 88° |
| 2026-04-25 20:43 | 49.93517 | 20.71132 | 22861 ft | 453 kts | 89° |
| 2026-04-25 20:43 | 49.93470 | 20.76039 | 22861 ft | 457 kts | 89° |
| 2026-04-25 20:43 | 49.93422 | 20.80972 | 22859 ft | 456 kts | 89° |
| 2026-04-25 20:44 | 49.93373 | 20.85899 | 22862 ft | 456 kts | 89° |
| 2026-04-25 20:44 | 49.93322 | 20.90820 | 22856 ft | 455 kts | 89° |
| 2026-04-25 20:44 | 49.93267 | 20.95723 | 22861 ft | 453 kts | 89° |
| 2026-04-25 20:44 | 49.93212 | 21.00625 | 22858 ft | 455 kts | 89° |
| 2026-04-25 20:45 | 49.93154 | 21.05534 | 22857 ft | 455 kts | 89° |
| 2026-04-25 20:45 | 49.93095 | 21.10445 | 22855 ft | 454 kts | 89° |
| 2026-04-25 20:45 | 49.93032 | 21.15370 | 22856 ft | 455 kts | 89° |
| 2026-04-25 20:45 | 49.92967 | 21.20288 | 22854 ft | 455 kts | 89° |
| 2026-04-25 20:46 | 49.92893 | 21.25134 | 22855 ft | 455 kts | 89° |
| 2026-04-25 20:46 | 49.92813 | 21.30053 | 22848 ft | 455 kts | 89° |
| 2026-04-25 20:46 | 49.92731 | 21.34964 | 22850 ft | 455 kts | 89° |
| 2026-04-25 20:46 | 49.92647 | 21.39875 | 22846 ft | 453 kts | 89° |
| 2026-04-25 20:47 | 49.92567 | 21.44751 | 22849 ft | 453 kts | 89° |
| 2026-04-25 20:47 | 49.92489 | 21.49648 | 22848 ft | 454 kts | 89° |
| 2026-04-25 20:47 | 49.92410 | 21.54541 | 22848 ft | 454 kts | 89° |
| 2026-04-25 20:47 | 49.92328 | 21.59439 | 22846 ft | 454 kts | 89° |
| 2026-04-25 20:48 | 49.92243 | 21.64334 | 22844 ft | 454 kts | 89° |
| 2026-04-25 20:48 | 49.92156 | 21.69226 | 22848 ft | 453 kts | 89° |
| 2026-04-25 20:48 | 49.92065 | 21.74128 | 22848 ft | 454 kts | 90° |
| 2026-04-25 20:48 | 49.91973 | 21.78957 | 22849 ft | 454 kts | 90° |
| 2026-04-25 20:49 | 49.91877 | 21.83855 | 22843 ft | 454 kts | 90° |
| 2026-04-25 20:49 | 49.91780 | 21.88748 | 22842 ft | 453 kts | 90° |
| 2026-04-25 20:49 | 49.91681 | 21.93631 | 22840 ft | 452 kts | 90° |
| 2026-04-25 20:49 | 49.91580 | 21.98519 | 22839 ft | 453 kts | 90° |
| 2026-04-25 20:50 | 49.91476 | 22.03404 | 22841 ft | 453 kts | 90° |
| 2026-04-25 20:50 | 49.91371 | 22.08302 | 22869 ft | 454 kts | 90° |
| 2026-04-25 20:50 | 49.91263 | 22.13220 | 22841 ft | 456 kts | 90° |
| 2026-04-25 20:50 | 49.91153 | 22.18142 | 22844 ft | 455 kts | 90° |
| 2026-04-25 20:51 | 49.91041 | 22.23049 | 22845 ft | 455 kts | 90° |
| 2026-04-25 20:51 | 49.90927 | 22.27957 | 22839 ft | 455 kts | 90° |
| 2026-04-25 20:51 | 49.90811 | 22.32857 | 22845 ft | 456 kts | 90° |
| 2026-04-25 20:51 | 49.90692 | 22.37764 | 22833 ft | 454 kts | 90° |
| 2026-04-25 20:52 | 49.90572 | 22.42657 | 22834 ft | 454 kts | 90° |
| 2026-04-25 20:52 | 49.90492 | 22.45892 | 22835 ft | 454 kts | 90° |
| 2026-04-25 20:52 | 49.90327 | 22.52448 | 22838 ft | 454 kts | 90° |
| 2026-04-25 20:52 | 49.90200 | 22.57344 | 22838 ft | 454 kts | 90° |
| 2026-04-25 20:53 | 49.90071 | 22.62238 | 22831 ft | 454 kts | 90° |
| 2026-04-25 20:53 | 49.89941 | 22.67134 | 22836 ft | 454 kts | 90° |
| 2026-04-25 20:53 | 49.89810 | 22.71976 | 22837 ft | 454 kts | 91° |
| 2026-04-25 20:53 | 49.89675 | 22.76890 | 22837 ft | 454 kts | 91° |
| 2026-04-25 20:54 | 49.89538 | 22.81790 | 22830 ft | 454 kts | 91° |
| 2026-04-25 20:54 | 49.89401 | 22.86641 | 22835 ft | 454 kts | 91° |
| 2026-04-25 20:54 | 49.89260 | 22.91531 | 22829 ft | 454 kts | 91° |
| 2026-04-25 20:54 | 49.89118 | 22.96429 | 22834 ft | 454 kts | 91° |
| 2026-04-25 20:55 | 49.88973 | 23.01333 | 22834 ft | 454 kts | 91° |
| 2026-04-25 20:55 | 49.88826 | 23.06227 | 22832 ft | 454 kts | 91° |
| 2026-04-25 20:55 | 49.88683 | 23.11129 | 22829 ft | 454 kts | 91° |
| 2026-04-25 20:55 | 49.88549 | 23.16012 | 22834 ft | 454 kts | 91° |
| 2026-04-25 20:56 | 49.88417 | 23.20865 | 22828 ft | 454 kts | 91° |
| 2026-04-25 20:56 | 49.88282 | 23.25766 | 22834 ft | 454 kts | 91° |
| 2026-04-25 20:56 | 49.88144 | 23.30660 | 22819 ft | 453 kts | 91° |
| 2026-04-25 20:56 | 49.88004 | 23.35516 | 22832 ft | 451 kts | 91° |
| 2026-04-25 20:57 | 49.87860 | 23.40380 | 22832 ft | 452 kts | 91° |
| 2026-04-25 20:57 | 49.87714 | 23.45263 | 22831 ft | 453 kts | 91° |
| 2026-04-25 20:57 | 49.87565 | 23.50147 | 22825 ft | 453 kts | 91° |
| 2026-04-25 20:57 | 49.87414 | 23.55017 | 22826 ft | 453 kts | 91° |
| 2026-04-25 20:58 | 49.87261 | 23.59916 | 22826 ft | 453 kts | 91° |
| 2026-04-25 20:58 | 49.87108 | 23.64736 | 22827 ft | 453 kts | 91° |
| 2026-04-25 20:58 | 49.86951 | 23.69615 | 22827 ft | 453 kts | 91° |
| 2026-04-25 20:58 | 49.86792 | 23.74497 | 22826 ft | 453 kts | 91° |
| 2026-04-25 20:59 | 49.86632 | 23.79368 | 22824 ft | 452 kts | 91° |
| 2026-04-25 20:59 | 49.86469 | 23.84246 | 22827 ft | 450 kts | 91° |
| 2026-04-25 20:59 | 49.86306 | 23.89047 | 22827 ft | 451 kts | 91° |
| 2026-04-25 20:59 | 49.86140 | 23.93900 | 22826 ft | 451 kts | 92° |
| 2026-04-25 21:00 | 49.85972 | 23.98752 | 22821 ft | 451 kts | 92° |
| 2026-04-25 21:00 | 49.85914 | 24.00401 | 22823 ft | 451 kts | 92° |
| 2026-04-25 21:00 | 49.85453 | 24.13354 | 22826 ft | 451 kts | 92° |
| 2026-04-25 21:01 | 49.85279 | 24.18150 | 22826 ft | 451 kts | 92° |
| 2026-04-25 21:01 | 49.85101 | 24.23012 | 22824 ft | 451 kts | 92° |
| 2026-04-25 21:01 | 49.84920 | 24.27866 | 22812 ft | 450 kts | 92° |
| 2026-04-25 21:01 | 49.84739 | 24.32691 | 22825 ft | 448 kts | 92° |
| 2026-04-25 21:02 | 49.84556 | 24.37506 | 22825 ft | 448 kts | 92° |
| 2026-04-25 21:02 | 49.84370 | 24.42336 | 22823 ft | 448 kts | 92° |
| 2026-04-25 21:02 | 49.84183 | 24.47158 | 22824 ft | 449 kts | 92° |
| 2026-04-25 21:02 | 49.83994 | 24.51980 | 22817 ft | 449 kts | 92° |
| 2026-04-25 21:03 | 49.83802 | 24.56818 | 22820 ft | 449 kts | 92° |
| 2026-04-25 21:03 | 49.83611 | 24.61583 | 22820 ft | 448 kts | 92° |
| 2026-04-25 21:03 | 49.83416 | 24.66400 | 22820 ft | 449 kts | 92° |
| 2026-04-25 21:03 | 49.83218 | 24.71230 | 22817 ft | 449 kts | 92° |
| 2026-04-25 21:04 | 49.83019 | 24.76056 | 22829 ft | 449 kts | 93° |
| 2026-04-25 21:04 | 49.82818 | 24.80881 | 22818 ft | 448 kts | 93° |
| 2026-04-25 21:04 | 49.82615 | 24.85693 | 22821 ft | 448 kts | 93° |
| 2026-04-25 21:04 | 49.82409 | 24.90513 | 22820 ft | 448 kts | 93° |
| 2026-04-25 21:05 | 49.82201 | 24.95337 | 22821 ft | 448 kts | 93° |
| 2026-04-25 21:05 | 49.81994 | 25.00095 | 22821 ft | 448 kts | 93° |
| 2026-04-25 21:05 | 49.81782 | 25.04930 | 22815 ft | 448 kts | 93° |
| 2026-04-25 21:05 | 49.81568 | 25.09762 | 22814 ft | 448 kts | 93° |
| 2026-04-25 21:06 | 49.81353 | 25.14571 | 22815 ft | 448 kts | 93° |
| 2026-04-25 21:06 | 49.81136 | 25.19390 | 22815 ft | 449 kts | 93° |
| 2026-04-25 21:06 | 49.80917 | 25.24210 | 22812 ft | 447 kts | 94° |
| 2026-04-25 21:06 | 49.80846 | 25.25774 | 22816 ft | 446 kts | 94° |
| 2026-04-25 21:07 | 49.80475 | 25.33793 | 22818 ft | 446 kts | 94° |
| 2026-04-25 21:07 | 49.80253 | 25.38589 | 22816 ft | 446 kts | 94° |
| 2026-04-25 21:07 | 49.80090 | 25.43325 | 22818 ft | 446 kts | 90° |
| 2026-04-25 21:07 | 49.80063 | 25.48124 | 22818 ft | 446 kts | 89° |
| 2026-04-25 21:08 | 49.80072 | 25.52934 | 22812 ft | 446 kts | 89° |
| 2026-04-25 21:08 | 49.80072 | 25.57743 | 22813 ft | 446 kts | 89° |
| 2026-04-25 21:08 | 49.80056 | 25.62541 | 22812 ft | 446 kts | 90° |
| 2026-04-25 21:08 | 49.80026 | 25.67346 | 22812 ft | 446 kts | 90° |
| 2026-04-25 21:09 | 49.79942 | 25.76937 | 22813 ft | 445 kts | 90° |
| 2026-04-25 21:09 | 49.79896 | 25.81734 | 22814 ft | 445 kts | 90° |
| 2026-04-25 21:09 | 49.79849 | 25.86516 | 22812 ft | 445 kts | 90° |
| 2026-04-25 21:10 | 49.79802 | 25.91254 | 22812 ft | 445 kts | 90° |
| 2026-04-25 21:10 | 49.79752 | 25.96044 | 22815 ft | 445 kts | 90° |
| 2026-04-25 21:10 | 49.79700 | 26.00837 | 22803 ft | 445 kts | 90° |
| 2026-04-25 21:10 | 49.79645 | 26.05624 | 22815 ft | 445 kts | 90° |
| 2026-04-25 21:11 | 49.79607 | 26.08855 | 22809 ft | 445 kts | 90° |
| 2026-04-25 21:11 | 49.79549 | 26.13653 | 22803 ft | 445 kts | 90° |
| 2026-04-25 21:11 | 49.79488 | 26.18440 | 22802 ft | 445 kts | 90° |
| 2026-04-25 21:11 | 49.79427 | 26.23175 | 22813 ft | 445 kts | 90° |
| 2026-04-25 21:12 | 49.79362 | 26.28025 | 22799 ft | 446 kts | 90° |
| 2026-04-25 21:12 | 49.79297 | 26.32760 | 22811 ft | 446 kts | 90° |
| 2026-04-25 21:12 | 49.79229 | 26.37553 | 22804 ft | 446 kts | 90° |
| 2026-04-25 21:12 | 49.79181 | 26.40790 | 22815 ft | 445 kts | 90° |
| 2026-04-25 21:13 | 49.79086 | 26.47143 | 22819 ft | 445 kts | 91° |
| 2026-04-25 21:13 | 49.79012 | 26.51940 | 22815 ft | 446 kts | 91° |
| 2026-04-25 21:13 | 49.78937 | 26.56741 | 22818 ft | 445 kts | 91° |
| 2026-04-25 21:13 | 49.78859 | 26.61531 | 22818 ft | 445 kts | 91° |
| 2026-04-25 21:14 | 49.78779 | 26.66332 | 22817 ft | 445 kts | 91° |
| 2026-04-25 21:14 | 49.78697 | 26.71128 | 22798 ft | 446 kts | 91° |
| 2026-04-25 21:14 | 49.78613 | 26.75928 | 22812 ft | 446 kts | 91° |
| 2026-04-25 21:14 | 49.78527 | 26.80720 | 22808 ft | 446 kts | 91° |
| 2026-04-25 21:15 | 49.78439 | 26.85523 | 22809 ft | 446 kts | 91° |
| 2026-04-25 21:15 | 49.78350 | 26.90262 | 22810 ft | 446 kts | 91° |
| 2026-04-25 21:15 | 49.78257 | 26.95118 | 22810 ft | 446 kts | 91° |
| 2026-04-25 21:15 | 49.78165 | 26.99853 | 22810 ft | 446 kts | 91° |
| 2026-04-25 21:16 | 49.78069 | 27.04661 | 22818 ft | 446 kts | 91° |
| 2026-04-25 21:16 | 49.77972 | 27.09463 | 22810 ft | 446 kts | 91° |
| 2026-04-25 21:16 | 49.77872 | 27.14249 | 22812 ft | 446 kts | 91° |
| 2026-04-25 21:16 | 49.77770 | 27.19033 | 22816 ft | 446 kts | 91° |
| 2026-04-25 21:17 | 49.77666 | 27.23834 | 22805 ft | 445 kts | 91° |
| 2026-04-25 21:17 | 49.77560 | 27.28615 | 22804 ft | 445 kts | 91° |
| 2026-04-25 21:17 | 49.77453 | 27.33401 | 22807 ft | 445 kts | 91° |
| 2026-04-25 21:17 | 49.77344 | 27.38186 | 22811 ft | 445 kts | 91° |
| 2026-04-25 21:18 | 49.77232 | 27.42969 | 22804 ft | 445 kts | 91° |
| 2026-04-25 21:18 | 49.77119 | 27.47752 | 22814 ft | 445 kts | 91° |
| 2026-04-25 21:18 | 49.77004 | 27.52537 | 22813 ft | 445 kts | 91° |
| 2026-04-25 21:18 | 49.76887 | 27.57320 | 22813 ft | 445 kts | 92° |
| 2026-04-25 21:19 | 49.76769 | 27.62056 | 22811 ft | 445 kts | 92° |
| 2026-04-25 21:19 | 49.76646 | 27.66904 | 22813 ft | 445 kts | 92° |
| 2026-04-25 21:19 | 49.76524 | 27.71625 | 22802 ft | 445 kts | 92° |
| 2026-04-25 21:19 | 49.76399 | 27.76419 | 22809 ft | 445 kts | 92° |
| 2026-04-25 21:20 | 49.76326 | 27.81205 | 22804 ft | 445 kts | 86° |
| 2026-04-25 21:20 | 49.76521 | 27.84417 | 22811 ft | 444 kts | 79° |
| 2026-04-25 21:20 | 49.77572 | 27.90499 | 22809 ft | 440 kts | 66° |
| 2026-04-25 21:20 | 49.78712 | 27.94892 | 22814 ft | 440 kts | 65° |
| 2026-04-25 21:21 | 49.79849 | 27.99293 | 22814 ft | 440 kts | 66° |
| 2026-04-25 21:21 | 49.80981 | 28.03705 | 22804 ft | 440 kts | 66° |
| 2026-04-25 21:21 | 49.82095 | 28.08060 | 22805 ft | 440 kts | 66° |
| 2026-04-25 21:21 | 49.83220 | 28.12470 | 22805 ft | 440 kts | 66° |
| 2026-04-25 21:22 | 49.84347 | 28.16899 | 22799 ft | 440 kts | 66° |
| 2026-04-25 21:22 | 49.85468 | 28.21311 | 22800 ft | 440 kts | 66° |
| 2026-04-25 21:22 | 49.86587 | 28.25722 | 22802 ft | 440 kts | 66° |
| 2026-04-25 21:22 | 49.87705 | 28.30141 | 22801 ft | 440 kts | 66° |
| 2026-04-25 21:23 | 49.88823 | 28.34563 | 22795 ft | 440 kts | 66° |
| 2026-04-25 21:23 | 49.89936 | 28.38977 | 22795 ft | 439 kts | 66° |
| 2026-04-25 21:23 | 49.91048 | 28.43394 | 22798 ft | 440 kts | 66° |
| 2026-04-25 21:23 | 49.92162 | 28.47828 | 22795 ft | 439 kts | 66° |
| 2026-04-25 21:24 | 49.93258 | 28.52201 | 22801 ft | 440 kts | 66° |
| 2026-04-25 21:24 | 49.94367 | 28.56634 | 22791 ft | 440 kts | 66° |
| 2026-04-25 21:24 | 49.95473 | 28.61063 | 22795 ft | 440 kts | 66° |
| 2026-04-25 21:24 | 49.96578 | 28.65497 | 22799 ft | 440 kts | 66° |
| 2026-04-25 21:25 | 49.97679 | 28.69925 | 22793 ft | 439 kts | 66° |
| 2026-04-25 21:25 | 49.98778 | 28.74351 | 22798 ft | 440 kts | 66° |
| 2026-04-25 21:25 | 49.99878 | 28.78793 | 22797 ft | 440 kts | 66° |
| 2026-04-25 21:25 | 50.00977 | 28.83239 | 22798 ft | 440 kts | 66° |
| 2026-04-25 21:26 | 50.02075 | 28.87688 | 22797 ft | 440 kts | 66° |
| 2026-04-25 21:26 | 50.03167 | 28.92122 | 22801 ft | 440 kts | 67° |
| 2026-04-25 21:26 | 50.04246 | 28.96512 | 22803 ft | 440 kts | 67° |
| 2026-04-25 21:26 | 50.05343 | 29.01015 | 22796 ft | 440 kts | 67° |
| 2026-04-25 21:27 | 50.06405 | 29.05421 | 22793 ft | 440 kts | 67° |
| 2026-04-25 21:27 | 50.07477 | 29.09885 | 22792 ft | 438 kts | 68° |
| 2026-04-25 21:27 | 50.08545 | 29.14344 | 22788 ft | 439 kts | 68° |
| 2026-04-25 21:27 | 50.09613 | 29.18799 | 22788 ft | 439 kts | 68° |
| 2026-04-25 21:28 | 50.10680 | 29.23261 | 22794 ft | 439 kts | 68° |
| 2026-04-25 21:28 | 50.11743 | 29.27712 | 22792 ft | 439 kts | 68° |
| 2026-04-25 21:28 | 50.12807 | 29.32173 | 22791 ft | 439 kts | 68° |
| 2026-04-25 21:28 | 50.13856 | 29.36585 | 22788 ft | 439 kts | 68° |
| 2026-04-25 21:29 | 50.14916 | 29.41049 | 22786 ft | 439 kts | 68° |
| 2026-04-25 21:29 | 50.15974 | 29.45514 | 22812 ft | 439 kts | 68° |
| 2026-04-25 21:29 | 50.17031 | 29.49984 | 22790 ft | 439 kts | 68° |
| 2026-04-25 21:29 | 50.18089 | 29.54470 | 22788 ft | 439 kts | 68° |
| 2026-04-25 21:30 | 50.19247 | 29.58880 | 22792 ft | 438 kts | 62° |
| 2026-04-25 21:30 | 50.20573 | 29.63170 | 22791 ft | 438 kts | 62° |
| 2026-04-25 21:30 | 50.21877 | 29.67399 | 22668 ft | 438 kts | 62° |
| 2026-04-25 21:30 | 50.22764 | 29.70286 | 22486 ft | 437 kts | 62° |
| 2026-04-25 21:31 | 50.24495 | 29.75942 | 22117 ft | 433 kts | 62° |
| 2026-04-25 21:31 | 50.25791 | 29.80188 | 21853 ft | 432 kts | 62° |
| 2026-04-25 21:31 | 50.27078 | 29.84411 | 21580 ft | 429 kts | 62° |
| 2026-04-25 21:31 | 50.28360 | 29.88624 | 21313 ft | 427 kts | 62° |
| 2026-04-25 21:32 | 50.29635 | 29.92825 | 21087 ft | 427 kts | 62° |
| 2026-04-25 21:32 | 50.30907 | 29.97020 | 20838 ft | 426 kts | 62° |
| 2026-04-25 21:32 | 50.32172 | 30.01201 | 20578 ft | 424 kts | 62° |
| 2026-04-25 21:32 | 50.33432 | 30.05370 | 20319 ft | 422 kts | 62° |
| 2026-04-25 21:33 | 50.34668 | 30.09468 | 20067 ft | 421 kts | 62° |
| 2026-04-25 21:33 | 50.35915 | 30.13609 | 19819 ft | 420 kts | 62° |
| 2026-04-25 21:33 | 50.37157 | 30.17743 | 19574 ft | 418 kts | 62° |
| 2026-04-25 21:33 | 50.38396 | 30.21872 | 19329 ft | 417 kts | 62° |
| 2026-04-25 21:34 | 50.39627 | 30.25979 | 18817 ft | 418 kts | 62° |
| 2026-04-25 21:34 | 50.40867 | 30.30124 | 18199 ft | 418 kts | 61° |
| 2026-04-25 21:34 | 50.42116 | 30.34234 | 17530 ft | 415 kts | 61° |
| 2026-04-25 21:34 | 50.43357 | 30.38283 | 16957 ft | 410 kts | 61° |
| 2026-04-25 21:35 | 50.44581 | 30.42276 | 16588 ft | 399 kts | 61° |
| 2026-04-25 21:35 | 50.45759 | 30.46136 | 16404 ft | 384 kts | 61° |
| 2026-04-25 21:35 | 50.46894 | 30.49866 | 16180 ft | 373 kts | 60° |
| 2026-04-25 21:35 | 50.47992 | 30.53475 | 15702 ft | 370 kts | 61° |
| 2026-04-25 21:36 | 50.49102 | 30.57122 | 15149 ft | 369 kts | 61° |
| 2026-04-25 21:36 | 50.50194 | 30.60724 | 14596 ft | 361 kts | 61° |
| 2026-04-25 21:36 | 50.51260 | 30.64251 | 14042 ft | 353 kts | 61° |
| 2026-04-25 21:36 | 50.52304 | 30.67705 | 13518 ft | 346 kts | 61° |
| 2026-04-25 21:37 | 50.53327 | 30.71095 | 12927 ft | 340 kts | 61° |
| 2026-04-25 21:37 | 50.53995 | 30.73311 | 12541 ft | 335 kts | 60° |
| 2026-04-25 21:37 | 50.55867 | 30.76987 | 11772 ft | 314 kts | 29° |
| 2026-04-25 21:37 | 50.57771 | 30.78328 | 11245 ft | 294 kts | 4° |
| 2026-04-25 21:38 | 50.59761 | 30.78579 | 10696 ft | 282 kts | 353° |
| 2026-04-25 21:38 | 50.61685 | 30.78498 | 10163 ft | 278 kts | 352° |
| 2026-04-25 21:38 | 50.63611 | 30.78419 | 9638 ft | 276 kts | 353° |
| 2026-04-25 21:38 | 50.65510 | 30.78426 | 9214 ft | 268 kts | 354° |
| 2026-04-25 21:39 | 50.67319 | 30.78512 | 9081 ft | 249 kts | 355° |
| 2026-04-25 21:39 | 50.68973 | 30.78631 | 9072 ft | 227 kts | 355° |
| 2026-04-25 21:39 | 50.70535 | 30.78747 | 9091 ft | 230 kts | 354° |
| 2026-04-25 21:39 | 50.72126 | 30.78855 | 9071 ft | 226 kts | 354° |
| 2026-04-25 21:40 | 50.73181 | 30.78931 | 9072 ft | 225 kts | 354° |
| 2026-04-25 21:40 | 50.75265 | 30.79082 | 9072 ft | 226 kts | 354° |
| 2026-04-25 21:40 | 50.76839 | 30.79199 | 9072 ft | 226 kts | 355° |
| 2026-04-25 21:40 | 50.78411 | 30.79319 | 9069 ft | 226 kts | 355° |
| 2026-04-25 21:41 | 50.79977 | 30.79668 | 9065 ft | 235 kts | 15° |
| 2026-04-25 21:41 | 50.81343 | 30.81214 | 8989 ft | 252 kts | 47° |
| 2026-04-25 21:41 | 50.82098 | 30.83708 | 8788 ft | 257 kts | 79° |
| 2026-04-25 21:41 | 50.82135 | 30.86521 | 8499 ft | 256 kts | 97° |
| 2026-04-25 21:42 | 50.81848 | 30.89288 | 8175 ft | 254 kts | 111° |
| 2026-04-25 21:42 | 50.80964 | 30.91638 | 7705 ft | 250 kts | 143° |
| 2026-04-25 21:42 | 50.79500 | 30.92972 | 7089 ft | 246 kts | 174° |
| 2026-04-25 21:42 | 50.77784 | 30.93130 | 6466 ft | 247 kts | 192° |
| 2026-04-25 21:43 | 50.76089 | 30.92816 | 6166 ft | 242 kts | 195° |
| 2026-04-25 21:43 | 50.74458 | 30.92487 | 6070 ft | 231 kts | 194° |
| 2026-04-25 21:43 | 50.72901 | 30.92241 | 5990 ft | 220 kts | 192° |
| 2026-04-25 21:43 | 50.71413 | 30.92065 | 5816 ft | 215 kts | 191° |
| 2026-04-25 21:44 | 50.69926 | 30.91922 | 5534 ft | 214 kts | 191° |
| 2026-04-25 21:44 | 50.68433 | 30.91800 | 5248 ft | 214 kts | 190° |
| 2026-04-25 21:44 | 50.65521 | 30.91588 | 5079 ft | 211 kts | 190° |
| 2026-04-25 21:45 | 50.64065 | 30.91479 | 5082 ft | 209 kts | 190° |
| 2026-04-25 21:45 | 50.63574 | 30.91443 | 5083 ft | 209 kts | 190° |
| 2026-04-25 21:45 | 50.61130 | 30.91310 | 4756 ft | 214 kts | 184° |
| 2026-04-25 21:45 | 50.59643 | 30.91473 | 4483 ft | 214 kts | 185° |
| 2026-04-25 21:46 | 50.58182 | 30.91523 | 4339 ft | 205 kts | 187° |
| 2026-04-25 21:46 | 50.56787 | 30.91538 | 4245 ft | 195 kts | 187° |
| 2026-04-25 21:46 | 50.55461 | 30.91543 | 4123 ft | 187 kts | 188° |
| 2026-04-25 21:46 | 50.54177 | 30.91538 | 3915 ft | 183 kts | 189° |
| 2026-04-25 21:47 | 50.52936 | 30.91524 | 3746 ft | 176 kts | 189° |
| 2026-04-25 21:47 | 50.51732 | 30.91504 | 3502 ft | 169 kts | 189° |
| 2026-04-25 21:47 | 50.50575 | 30.91478 | 3281 ft | 162 kts | 190° |
| 2026-04-25 21:47 | 50.49474 | 30.91448 | 3080 ft | 154 kts | 190° |
| 2026-04-25 21:48 | 50.48427 | 30.91415 | 2874 ft | 146 kts | 191° |
| 2026-04-25 21:48 | 50.47444 | 30.91381 | 2690 ft | 135 kts | 192° |
| 2026-04-25 21:48 | 50.46543 | 30.91350 | 2516 ft | 124 kts | 193° |
| 2026-04-25 21:48 | 50.45704 | 30.91315 | 2352 ft | 120 kts | 194° |
| 2026-04-25 21:49 | 50.44870 | 30.91286 | 2189 ft | 120 kts | 192° |
| 2026-04-25 21:49 | 50.44046 | 30.91240 | 2032 ft | 118 kts | 194° |
| 2026-04-25 21:49 | 50.43225 | 30.91180 | 1875 ft | 118 kts | 194° |
| 2026-04-25 21:49 | 50.42414 | 30.91120 | 1723 ft | 116 kts | 194° |
| 2026-04-25 21:50 | 50.41605 | 30.91059 | 1559 ft | 116 kts | 194° |
| 2026-04-25 21:50 | 50.40797 | 30.90998 | 1405 ft | 116 kts | 193° |
| 2026-04-25 21:50 | 50.39977 | 30.90936 | 1240 ft | 119 kts | 192° |
| 2026-04-25 21:50 | 50.39425 | 30.90895 | 1123 ft | 120 kts | 191° |
| 2026-04-25 21:51 | 50.38317 | 30.90878 | 913 ft | 121 kts | 184° |
| 2026-04-25 21:51 | 50.37482 | 30.90758 | 745 ft | 121 kts | 189° |
| 2026-04-25 21:51 | 50.36653 | 30.90686 | 556 ft | 118 kts | 186° |
| 2026-04-25 21:51 | 50.35828 | 30.90623 | 468 ft | 124 kts | 185° |
| 2026-04-25 21:52 | 50.35031 | 30.90574 | 419 ft | 102 kts | 181° |
| 2026-04-25 21:52 | 50.34495 | 30.90525 | 420 ft | 31 kts | 185° |
| 2026-04-25 21:52 | 50.34398 | 30.90512 | 411 ft | 2 kts | 185° |
| 2026-04-25 21:52 | 50.34441 | 30.90518 | 412 ft | 9 kts | 185° |
| 2026-04-25 21:53 | 50.34511 | 30.90528 | 416 ft | 11 kts | 185° |
| 2026-04-25 21:53 | 50.34418 | 30.90515 | 415 ft | 49 kts | 186° |
| 2026-04-25 21:53 | 50.34291 | 30.90481 | 419 ft | 15 kts | 193° |
| 2026-04-25 21:53 | 50.34178 | 30.90435 | 413 ft | 29 kts | 208° |
| 2026-04-25 21:54 | 50.34121 | 30.90373 | 414 ft | 18 kts | 210° |
| 2026-04-25 21:54 | 50.34044 | 30.90289 | 414 ft | 15 kts | 231° |
| 2026-04-25 21:54 | 50.34109 | 30.90171 | 415 ft | 21 kts | 4° |
| 2026-04-25 21:54 | 50.34257 | 30.90191 | 410 ft | 5 kts | 0° |
| 2026-04-25 21:55 | 50.34268 | 30.90191 | 407 ft | 9 kts | 0° |
| 2026-04-25 21:55 | 50.34402 | 30.90203 | 411 ft | 18 kts | 5° |
| 2026-04-25 21:55 | 50.34557 | 30.90216 | 410 ft | 27 kts | 2° |
| 2026-04-25 21:55 | 50.34689 | 30.90223 | 410 ft | 14 kts | 2° |
| 2026-04-25 21:56 | 50.34835 | 30.90224 | 410 ft | 16 kts | 340° |
| 2026-04-25 21:56 | 50.34893 | 30.90130 | 409 ft | 20 kts | 271° |
| 2026-04-25 21:56 | 50.34901 | 30.89878 | 414 ft | 8 kts | 273° |
| 2026-04-25 21:56 | 50.34902 | 30.89842 | 414 ft | 0 kts | 273° |